Terminal Aerodrome Forecast
Issued by NWS

Home | Current Version | Previous Version | Text Only | Print | Product List | Glossary On
Versions: 1 2 3 4 5 6 7 8 9 10 11 12 13 14 15 16 17 18 19 20 21 22 23 24 25 26 27 28 29 30 31 32 33
567
FTUS44 KFWD 172019 AAA
TAFAFW
TAF AMD
KAFW 172019Z 1720/1818 18010KT P6SM VCTS SCT045CB BKN150
      TEMPO 1720/1722 P6SM -TSRA BKN045CB
     FM172300 15008KT P6SM SCT050 BKN250
     FM181500 21010KT P6SM SCT050 BKN300=

USA.gov is the U.S. government's official web portal to all federal, state and local government web resources and services.